sensor_id;sensor_type;location;lat;lon;timestamp;pressure;altitude;pressure_sealevel;temperature;humidity
23363;BME280;11853;48.080;11.960;2023-06-22T00:01:48;94980.16;;;21.71;96.32
23363;BME280;11853;48.080;11.960;2023-06-22T00:04:14;94981.47;;;21.62;97.48
23363;BME280;11853;48.080;11.960;2023-06-22T00:06:39;94972.75;;;21.60;97.86
23363;BME280;11853;48.080;11.960;2023-06-22T00:09:05;94958.66;;;21.58;97.34
23363;BME280;11853;48.080;11.960;2023-06-22T00:11:32;94944.53;;;21.56;96.77
23363;BME280;11853;48.080;11.960;2023-06-22T00:14:01;94944.59;;;21.49;97.31
23363;BME280;11853;48.080;11.960;2023-06-22T00:16:27;94928.81;;;21.46;96.78
23363;BME280;11853;48.080;11.960;2023-06-22T00:18:52;94938.78;;;21.46;95.69
23363;BME280;11853;48.080;11.960;2023-06-22T00:21:18;94931.53;;;21.46;96.13
23363;BME280;11853;48.080;11.960;2023-06-22T00:23:46;94928.22;;;21.44;96.31
23363;BME280;11853;48.080;11.960;2023-06-22T00:26:13;94922.66;;;21.32;97.40
23363;BME280;11853;48.080;11.960;2023-06-22T00:28:38;94919.13;;;21.32;98.06
23363;BME280;11853;48.080;11.960;2023-06-22T00:31:04;94934.72;;;21.30;98.52
23363;BME280;11853;48.080;11.960;2023-06-22T00:33:30;94948.81;;;21.32;98.65
23363;BME280;11853;48.080;11.960;2023-06-22T00:35:56;94945.31;;;21.25;99.10
23363;BME280;11853;48.080;11.960;2023-06-22T00:38:22;94944.44;;;21.31;98.39
23363;BME280;11853;48.080;11.960;2023-06-22T00:40:48;94947.19;;;21.24;98.75
23363;BME280;11853;48.080;11.960;2023-06-22T00:43:13;94946.41;;;21.17;98.94
23363;BME280;11853;48.080;11.960;2023-06-22T00:45:39;94953.28;;;21.13;99.54
23363;BME280;11853;48.080;11.960;2023-06-22T00:48:05;94943.53;;;21.12;99.40
23363;BME280;11853;48.080;11.960;2023-06-22T00:50:32;94941.41;;;21.21;98.87
23363;BME280;11853;48.080;11.960;2023-06-22T00:53:00;94936.06;;;21.07;99.75
23363;BME280;11853;48.080;11.960;2023-06-22T00:55:30;94935.66;;;21.10;99.58
23363;BME280;11853;48.080;11.960;2023-06-22T00:57:56;94921.94;;;21.12;98.83
23363;BME280;11853;48.080;11.960;2023-06-22T01:00:23;94926.47;;;21.18;99.62
23363;BME280;11853;48.080;11.960;2023-06-22T01:02:51;94924.47;;;21.07;100.00
23363;BME280;11853;48.080;11.960;2023-06-22T01:05:19;94926.53;;;21.05;100.00
23363;BME280;11853;48.080;11.960;2023-06-22T01:07:55;94931.50;;;21.08;100.00
23363;BME280;11853;48.080;11.960;2023-06-22T01:10:30;94926.09;;;21.08;100.00
23363;BME280;11853;48.080;11.960;2023-06-22T01:13:02;94924.91;;;20.97;100.00
23363;BME280;11853;48.080;11.960;2023-06-22T01:16:15;94911.06;;;20.87;100.00
23363;BME280;11853;48.080;11.960;2023-06-22T01:18:44;94917.53;;;20.79;100.00
23363;BME280;11853;48.080;11.960;2023-06-22T01:21:16;94917.09;;;20.82;100.00
23363;BME280;11853;48.080;11.960;2023-06-22T01:27:09;94905.53;;;20.75;100.00
23363;BME280;11853;48.080;11.960;2023-06-22T01:29:41;94907.59;;;20.73;100.00
23363;BME280;11853;48.080;11.960;2023-06-22T01:32:08;94907.41;;;20.75;100.00
23363;BME280;11853;48.080;11.960;2023-06-22T01:34:37;94907.59;;;20.73;100.00
23363;BME280;11853;48.080;11.960;2023-06-22T01:37:06;94912.56;;;20.76;100.00
23363;BME280;11853;48.080;11.960;2023-06-22T01:39:33;94906.78;;;20.66;100.00
23363;BME280;11853;48.080;11.960;2023-06-22T01:41:59;94896.00;;;20.66;100.00
23363;BME280;11853;48.080;11.960;2023-06-22T01:44:25;94901.00;;;20.69;100.00
23363;BME280;11853;48.080;11.960;2023-06-22T01:46:52;94892.28;;;20.67;100.00
23363;BME280;11853;48.080;11.960;2023-06-22T01:49:18;94896.09;;;20.53;100.00
23363;BME280;11853;48.080;11.960;2023-06-22T01:51:43;94891.69;;;20.52;100.00
23363;BME280;11853;48.080;11.960;2023-06-22T01:54:09;94897.72;;;20.54;100.00
23363;BME280;11853;48.080;11.960;2023-06-22T01:56:35;94878.63;;;20.48;100.00
23363;BME280;11853;48.080;11.960;2023-06-22T02:01:54;94883.66;;;20.38;100.00
23363;BME280;11853;48.080;11.960;2023-06-22T02:05:17;94872.88;;;20.38;100.00
23363;BME280;11853;48.080;11.960;2023-06-22T02:07:18;94875.13;;;20.48;100.00
23363;BME280;11853;48.080;11.960;2023-06-22T02:09:49;94872.03;;;20.44;100.00
23363;BME280;11853;48.080;11.960;2023-06-22T02:12:18;94869.94;;;20.40;100.00
23363;BME280;11853;48.080;11.960;2023-06-22T02:14:47;94870.81;;;20.34;100.00
23363;BME280;11853;48.080;11.960;2023-06-22T02:17:13;94863.81;;;20.26;100.00
23363;BME280;11853;48.080;11.960;2023-06-22T02:19:42;94871.91;;;20.26;100.00
23363;BME280;11853;48.080;11.960;2023-06-22T02:22:07;94870.22;;;20.25;100.00
23363;BME280;11853;48.080;11.960;2023-06-22T02:24:33;94863.38;;;20.22;100.00
23363;BME280;11853;48.080;11.960;2023-06-22T02:27:01;94862.13;;;20.25;100.00
23363;BME280;11853;48.080;11.960;2023-06-22T02:29:28;94869.19;;;20.19;100.00
23363;BME280;11853;48.080;11.960;2023-06-22T02:31:54;94861.53;;;20.16;100.00
23363;BME280;11853;48.080;11.960;2023-06-22T02:34:21;94861.97;;;20.13;100.00
23363;BME280;11853;48.080;11.960;2023-06-22T02:36:48;94862.38;;;20.17;100.00
23363;BME280;11853;48.080;11.960;2023-06-22T02:39:21;94859.06;;;20.08;100.00
23363;BME280;11853;48.080;11.960;2023-06-22T02:41:52;94862.38;;;20.17;100.00
23363;BME280;11853;48.080;11.960;2023-06-22T02:44:18;94864.69;;;20.07;100.00
23363;BME280;11853;48.080;11.960;2023-06-22T02:46:44;94866.97;;;20.03;100.00
23363;BME280;11853;48.080;11.960;2023-06-22T02:49:10;94872.56;;;20.01;100.00
23363;BME280;11853;48.080;11.960;2023-06-22T02:51:38;94876.31;;;19.87;100.00
23363;BME280;11853;48.080;11.960;2023-06-22T02:54:05;94877.13;;;20.01;100.00
23363;BME280;11853;48.080;11.960;2023-06-22T02:56:31;94879.19;;;19.99;100.00
23363;BME280;11853;48.080;11.960;2023-06-22T02:58:57;94881.50;;;19.95;100.00
23363;BME280;11853;48.080;11.960;2023-06-22T03:01:30;94893.06;;;20.02;100.00
23363;BME280;11853;48.080;11.960;2023-06-22T03:03:56;94895.78;;;20.09;100.00
23363;BME280;11853;48.080;11.960;2023-06-22T03:06:22;94887.69;;;20.02;100.00
23363;BME280;11853;48.080;11.960;2023-06-22T03:08:49;94885.84;;;19.96;100.00
23363;BME280;11853;48.080;11.960;2023-06-22T03:11:15;94880.03;;;19.93;100.00
23363;BME280;11853;48.080;11.960;2023-06-22T03:13:40;94885.19;;;19.94;100.00
23363;BME280;11853;48.080;11.960;2023-06-22T03:16:06;94888.13;;;19.93;100.00
23363;BME280;11853;48.080;11.960;2023-06-22T03:18:31;94886.06;;;19.95;100.00
23363;BME280;11853;48.080;11.960;2023-06-22T03:20:57;94887.50;;;19.97;100.00
23363;BME280;11853;48.080;11.960;2023-06-22T03:23:22;94883.75;;;19.98;100.00
23363;BME280;11853;48.080;11.960;2023-06-22T03:25:48;94890.38;;;20.02;100.00
23363;BME280;11853;48.080;11.960;2023-06-22T03:28:14;94897.84;;;20.07;100.00
23363;BME280;11853;48.080;11.960;2023-06-22T03:30:39;94887.25;;;20.06;100.00
23363;BME280;11853;48.080;11.960;2023-06-22T03:33:05;94889.53;;;20.09;100.00
23363;BME280;11853;48.080;11.960;2023-06-22T03:35:30;94897.00;;;20.13;100.00
23363;BME280;11853;48.080;11.960;2023-06-22T03:37:56;94890.56;;;20.14;100.00
23363;BME280;11853;48.080;11.960;2023-06-22T03:40:21;94904.44;;;20.18;100.00
23363;BME280;11853;48.080;11.960;2023-06-22T03:42:47;94897.63;;;20.15;100.00
23363;BME280;11853;48.080;11.960;2023-06-22T03:45:13;94880.81;;;20.13;100.00
23363;BME280;11853;48.080;11.960;2023-06-22T03:47:38;94890.78;;;20.13;100.00
23363;BME280;11853;48.080;11.960;2023-06-22T03:50:05;94888.72;;;20.15;100.00
23363;BME280;11853;48.080;11.960;2023-06-22T03:52:31;94880.81;;;20.13;100.00
23363;BME280;11853;48.080;11.960;2023-06-22T03:55:00;94876.66;;;20.24;100.00
23363;BME280;11853;48.080;11.960;2023-06-22T03:57:26;94880.00;;;20.13;100.00
23363;BME280;11853;48.080;11.960;2023-06-22T03:59:51;94889.31;;;20.17;100.00
23363;BME280;11853;48.080;11.960;2023-06-22T04:02:17;94891.19;;;20.10;100.00
23363;BME280;11853;48.080;11.960;2023-06-22T04:04:42;94888.28;;;20.11;100.00
23363;BME280;11853;48.080;11.960;2023-06-22T04:07:08;94883.75;;;19.98;100.00
23363;BME280;11853;48.080;11.960;2023-06-22T04:09:34;94883.97;;;19.97;100.00
23363;BME280;11853;48.080;11.960;2023-06-22T04:11:59;94882.28;;;20.02;100.00
23363;BME280;11853;48.080;11.960;2023-06-22T04:14:25;94885.81;;;20.10;100.00
23363;BME280;11853;48.080;11.960;2023-06-22T04:16:51;94886.00;;;20.15;100.00
23363;BME280;11853;48.080;11.960;2023-06-22T04:19:17;94890.31;;;20.22;100.00
23363;BME280;11853;48.080;11.960;2023-06-22T04:21:44;94891.19;;;20.10;100.00
23363;BME280;11853;48.080;11.960;2023-06-22T04:24:10;94896.59;;;20.10;100.00
23363;BME280;11853;48.080;11.960;2023-06-22T04:26:36;94884.34;;;20.14;100.00
23363;BME280;11853;48.080;11.960;2023-06-22T04:29:07;94891.63;;;20.07;100.00
23363;BME280;11853;48.080;11.960;2023-06-22T04:31:34;94883.94;;;20.10;100.00
23363;BME280;11853;48.080;11.960;2023-06-22T04:34:05;94892.41;;;20.14;100.00
23363;BME280;11853;48.080;11.960;2023-06-22T04:36:39;94888.28;;;20.18;100.00
23363;BME280;11853;48.080;11.960;2023-06-22T04:39:09;94884.13;;;20.09;100.00
23363;BME280;11853;48.080;11.960;2023-06-22T04:41:39;94886.19;;;20.20;100.00
23363;BME280;11853;48.080;11.960;2023-06-22T04:44:11;94882.91;;;20.18;100.00
23363;BME280;11853;48.080;11.960;2023-06-22T04:46:37;94885.53;;;20.38;100.00
23363;BME280;11853;48.080;11.960;2023-06-22T04:49:12;94879.13;;;20.32;100.00
23363;BME280;11853;48.080;11.960;2023-06-22T04:51:42;94884.91;;;20.36;100.00
23363;BME280;11853;48.080;11.960;2023-06-22T04:54:09;94880.97;;;20.38;100.00
23363;BME280;11853;48.080;11.960;2023-06-22T04:56:35;94883.22;;;20.41;100.00
23363;BME280;11853;48.080;11.960;2023-06-22T04:59:01;94887.81;;;20.41;100.00
23363;BME280;11853;48.080;11.960;2023-06-22T05:01:26;94874.53;;;20.46;100.00
23363;BME280;11853;48.080;11.960;2023-06-22T05:03:52;94879.25;;;20.51;100.00
23363;BME280;11853;48.080;11.960;2023-06-22T05:06:22;94874.69;;;20.51;100.00
23363;BME280;11853;48.080;11.960;2023-06-22T05:08:52;94879.25;;;20.57;100.00
23363;BME280;11853;48.080;11.960;2023-06-22T05:11:26;94892.91;;;20.69;100.00
23363;BME280;11853;48.080;11.960;2023-06-22T05:13:51;94890.56;;;20.79;100.00
23363;BME280;11853;48.080;11.960;2023-06-22T05:16:17;94885.16;;;20.79;100.00
23363;BME280;11853;48.080;11.960;2023-06-22T05:18:50;94884.53;;;20.84;100.00
23363;BME280;11853;48.080;11.960;2023-06-22T05:21:16;94874.09;;;20.94;100.00
23363;BME280;11853;48.080;11.960;2023-06-22T05:23:42;94871.38;;;21.01;100.00
23363;BME280;11853;48.080;11.960;2023-06-22T05:26:07;94876.34;;;21.04;100.00
23363;BME280;11853;48.080;11.960;2023-06-22T05:28:35;94883.13;;;21.13;100.00
23363;BME280;11853;48.080;11.960;2023-06-22T05:31:00;94885.31;;;21.29;100.00
23363;BME280;11853;48.080;11.960;2023-06-22T05:33:26;94872.00;;;21.28;100.00
23363;BME280;11853;48.080;11.960;2023-06-22T05:35:52;94873.59;;;21.42;100.00
23363;BME280;11853;48.080;11.960;2023-06-22T05:38:17;94872.78;;;21.42;100.00
23363;BME280;11853;48.080;11.960;2023-06-22T05:40:43;94873.53;;;21.49;100.00
23363;BME280;11853;48.080;11.960;2023-06-22T05:43:09;94874.78;;;21.53;100.00
23363;BME280;11853;48.080;11.960;2023-06-22T05:45:34;94864.16;;;21.58;100.00
23363;BME280;11853;48.080;11.960;2023-06-22T05:48:00;94868.03;;;21.62;100.00
23363;BME280;11853;48.080;11.960;2023-06-22T05:50:26;94874.53;;;21.79;100.00
23363;BME280;11853;48.080;11.960;2023-06-22T05:52:52;94874.59;;;21.98;100.00
23363;BME280;11853;48.080;11.960;2023-06-22T05:55:18;94877.97;;;22.12;100.00
23363;BME280;11853;48.080;11.960;2023-06-22T05:57:44;94878.81;;;22.12;100.00
23363;BME280;11853;48.080;11.960;2023-06-22T06:00:10;94876.28;;;22.17;100.00
23363;BME280;11853;48.080;11.960;2023-06-22T06:02:37;94868.19;;;22.36;100.00
23363;BME280;11853;48.080;11.960;2023-06-22T06:05:08;94869.53;;;22.45;100.00
23363;BME280;11853;48.080;11.960;2023-06-22T06:07:37;94873.81;;;22.53;100.00
23363;BME280;11853;48.080;11.960;2023-06-22T06:10:03;94862.75;;;22.54;99.15
23363;BME280;11853;48.080;11.960;2023-06-22T06:12:30;94868.69;;;22.63;99.93
23363;BME280;11853;48.080;11.960;2023-06-22T06:14:56;94876.41;;;22.78;99.68
23363;BME280;11853;48.080;11.960;2023-06-22T06:17:22;94877.88;;;22.92;97.04
23363;BME280;11853;48.080;11.960;2023-06-22T06:19:47;94883.00;;;23.00;97.38
23363;BME280;11853;48.080;11.960;2023-06-22T06:22:13;94874.88;;;23.00;97.44
23363;BME280;11853;48.080;11.960;2023-06-22T06:24:38;94858.94;;;23.10;97.06
23363;BME280;11853;48.080;11.960;2023-06-22T06:27:04;94865.44;;;23.21;96.44
23363;BME280;11853;48.080;11.960;2023-06-22T06:29:31;94862.50;;;23.23;96.75
23363;BME280;11853;48.080;11.960;2023-06-22T06:31:56;94866.50;;;23.32;97.00
23363;BME280;11853;48.080;11.960;2023-06-22T06:34:22;94856.78;;;23.43;97.12
23363;BME280;11853;48.080;11.960;2023-06-22T06:36:48;94858.69;;;23.54;96.67
23363;BME280;11853;48.080;11.960;2023-06-22T06:39:14;94857.19;;;23.70;95.52
23363;BME280;11853;48.080;11.960;2023-06-22T06:41:41;94860.16;;;23.80;94.77
23363;BME280;11853;48.080;11.960;2023-06-22T06:44:06;94858.16;;;23.87;91.81
23363;BME280;11853;48.080;11.960;2023-06-22T06:46:32;94856.50;;;23.86;91.75
23363;BME280;11853;48.080;11.960;2023-06-22T06:48:58;94853.31;;;23.89;91.92
23363;BME280;11853;48.080;11.960;2023-06-22T06:51:23;94856.16;;;23.82;92.61
23363;BME280;11853;48.080;11.960;2023-06-22T06:53:49;94861.34;;;24.08;90.23
23363;BME280;11853;48.080;11.960;2023-06-22T06:56:15;94854.38;;;24.12;90.54
23363;BME280;11853;48.080;11.960;2023-06-22T06:58:41;94848.84;;;24.07;92.25
23363;BME280;11853;48.080;11.960;2023-06-22T07:01:08;94852.25;;;24.14;91.57
23363;BME280;11853;48.080;11.960;2023-06-22T07:03:33;94849.66;;;24.19;91.18
23363;BME280;11853;48.080;11.960;2023-06-22T07:05:59;94851.16;;;24.26;90.13
23363;BME280;11853;48.080;11.960;2023-06-22T07:08:25;94847.16;;;24.29;90.30
23363;BME280;11853;48.080;11.960;2023-06-22T07:10:52;94855.19;;;24.36;90.89
23363;BME280;11853;48.080;11.960;2023-06-22T07:13:17;94853.63;;;24.52;89.76
23363;BME280;11853;48.080;11.960;2023-06-22T07:15:43;94845.28;;;24.53;89.56
23363;BME280;11853;48.080;11.960;2023-06-22T07:18:09;94851.19;;;24.50;90.19
23363;BME280;11853;48.080;11.960;2023-06-22T07:20:34;94851.00;;;24.68;89.24
23363;BME280;11853;48.080;11.960;2023-06-22T07:23:00;94846.50;;;24.74;88.33
23363;BME280;11853;48.080;11.960;2023-06-22T07:25:26;94844.72;;;24.80;87.73
23363;BME280;11853;48.080;11.960;2023-06-22T07:28:07;94846.84;;;24.78;89.10
23363;BME280;11853;48.080;11.960;2023-06-22T07:30:34;94854.22;;;24.94;87.00
23363;BME280;11853;48.080;11.960;2023-06-22T07:32:59;94845.25;;;24.93;86.25
23363;BME280;11853;48.080;11.960;2023-06-22T07:35:30;94849.88;;;24.93;87.54
23363;BME280;11853;48.080;11.960;2023-06-22T07:37:55;94848.63;;;25.01;88.37
23363;BME280;11853;48.080;11.960;2023-06-22T07:40:21;94841.88;;;25.15;86.84
23363;BME280;11853;48.080;11.960;2023-06-22T07:42:47;94844.47;;;25.10;85.88
23363;BME280;11853;48.080;11.960;2023-06-22T07:45:17;94844.19;;;25.23;86.06
23363;BME280;11853;48.080;11.960;2023-06-22T07:47:43;94841.06;;;25.31;86.47
23363;BME280;11853;48.080;11.960;2023-06-22T07:50:09;94835.84;;;25.42;85.30
23363;BME280;11853;48.080;11.960;2023-06-22T07:52:35;94836.97;;;25.46;86.34
23363;BME280;11853;48.080;11.960;2023-06-22T07:55:00;94830.72;;;25.62;85.46
23363;BME280;11853;48.080;11.960;2023-06-22T07:57:27;94837.41;;;25.71;83.35
23363;BME280;11853;48.080;11.960;2023-06-22T08:00:02;94836.81;;;25.69;83.61
23363;BME280;11853;48.080;11.960;2023-06-22T08:02:39;94829.16;;;25.66;83.63
23363;BME280;11853;48.080;11.960;2023-06-22T08:05:06;94838.47;;;25.70;84.18
23363;BME280;11853;48.080;11.960;2023-06-22T08:07:34;94838.88;;;25.79;84.40
23363;BME280;11853;48.080;11.960;2023-06-22T08:10:00;94840.28;;;25.81;84.74
23363;BME280;11853;48.080;11.960;2023-06-22T08:12:26;94845.91;;;25.92;83.36
23363;BME280;11853;48.080;11.960;2023-06-22T08:14:52;94843.44;;;26.07;83.41
23363;BME280;11853;48.080;11.960;2023-06-22T08:17:17;94842.44;;;26.13;80.53
23363;BME280;11853;48.080;11.960;2023-06-22T08:19:43;94843.44;;;26.07;80.25
23363;BME280;11853;48.080;11.960;2023-06-22T08:22:08;94842.66;;;26.12;81.90
23363;BME280;11853;48.080;11.960;2023-06-22T08:24:34;94840.75;;;26.12;83.58
23363;BME280;11853;48.080;11.960;2023-06-22T08:26:59;94841.59;;;26.13;82.61
23363;BME280;11853;48.080;11.960;2023-06-22T08:29:25;94842.63;;;26.28;80.13
23363;BME280;11853;48.080;11.960;2023-06-22T08:31:50;94842.06;;;26.26;81.68
23363;BME280;11853;48.080;11.960;2023-06-22T08:34:16;94840.06;;;26.39;80.32
23363;BME280;11853;48.080;11.960;2023-06-22T08:36:43;94837.72;;;26.47;80.53
23363;BME280;11853;48.080;11.960;2023-06-22T08:39:18;94834.25;;;26.52;80.21
23363;BME280;11853;48.080;11.960;2023-06-22T08:41:46;94840.53;;;26.52;79.70
23363;BME280;11853;48.080;11.960;2023-06-22T08:44:11;94836.16;;;26.73;78.87
23363;BME280;11853;48.080;11.960;2023-06-22T08:46:37;94828.50;;;26.70;80.13
23363;BME280;11853;48.080;11.960;2023-06-22T08:49:04;94828.06;;;26.79;78.47
23363;BME280;11853;48.080;11.960;2023-06-22T08:51:29;94824.88;;;26.87;78.12
23363;BME280;11853;48.080;11.960;2023-06-22T08:53:55;94829.84;;;26.90;77.63
23363;BME280;11853;48.080;11.960;2023-06-22T08:56:22;94821.59;;;26.85;78.05
23363;BME280;11853;48.080;11.960;2023-06-22T08:58:47;94828.16;;;26.89;78.02
23363;BME280;11853;48.080;11.960;2023-06-22T09:01:13;94822.72;;;26.89;78.27
23363;BME280;11853;48.080;11.960;2023-06-22T09:03:40;94825.00;;;26.97;77.96
23363;BME280;11853;48.080;11.960;2023-06-22T09:06:06;94819.03;;;27.00;77.76
23363;BME280;11853;48.080;11.960;2023-06-22T09:08:37;94809.38;;;27.14;77.21
23363;BME280;11853;48.080;11.960;2023-06-22T09:11:03;94817.34;;;27.16;78.27
23363;BME280;11853;48.080;11.960;2023-06-22T09:13:30;94821.75;;;27.22;79.01
23363;BME280;11853;48.080;11.960;2023-06-22T09:15:56;94818.81;;;27.29;76.75
23363;BME280;11853;48.080;11.960;2023-06-22T09:18:21;94807.44;;;27.37;76.56
23363;BME280;11853;48.080;11.960;2023-06-22T09:20:47;94818.75;;;27.51;74.49
23363;BME280;11853;48.080;11.960;2023-06-22T09:23:13;94809.00;;;27.60;74.49
23363;BME280;11853;48.080;11.960;2023-06-22T09:25:40;94806.50;;;27.53;77.62
23363;BME280;11853;48.080;11.960;2023-06-22T09:28:06;94809.75;;;27.55;77.23
23363;BME280;11853;48.080;11.960;2023-06-22T09:30:31;94808.22;;;27.65;74.96
23363;BME280;11853;48.080;11.960;2023-06-22T09:32:57;94808.84;;;27.77;74.12
23363;BME280;11853;48.080;11.960;2023-06-22T09:35:23;94807.22;;;27.76;76.18
23363;BME280;11853;48.080;11.960;2023-06-22T09:37:48;94803.53;;;27.92;74.57
23363;BME280;11853;48.080;11.960;2023-06-22T09:40:14;94796.50;;;28.01;74.67
23363;BME280;11853;48.080;11.960;2023-06-22T09:42:42;94794.16;;;28.20;74.29
23363;BME280;11853;48.080;11.960;2023-06-22T09:45:08;94798.34;;;28.33;71.73
23363;BME280;11853;48.080;11.960;2023-06-22T09:47:34;94802.66;;;28.29;72.05
23363;BME280;11853;48.080;11.960;2023-06-22T09:49:59;94793.44;;;28.40;71.24
23363;BME280;11853;48.080;11.960;2023-06-22T09:52:25;94790.44;;;28.37;74.02
23363;BME280;11853;48.080;11.960;2023-06-22T09:54:51;94785.03;;;28.47;71.59
23363;BME280;11853;48.080;11.960;2023-06-22T09:57:16;94796.31;;;28.66;70.06
23363;BME280;11853;48.080;11.960;2023-06-22T09:59:42;94785.38;;;28.66;70.21
23363;BME280;11853;48.080;11.960;2023-06-22T10:02:08;94793.31;;;28.67;68.48
23363;BME280;11853;48.080;11.960;2023-06-22T10:04:34;94791.41;;;28.73;69.48
23363;BME280;11853;48.080;11.960;2023-06-22T10:07:01;94791.69;;;28.71;71.35
23363;BME280;11853;48.080;11.960;2023-06-22T10:09:27;94778.34;;;28.85;69.21
23363;BME280;11853;48.080;11.960;2023-06-22T10:11:56;94783.00;;;28.90;67.70
23363;BME280;11853;48.080;11.960;2023-06-22T10:14:24;94786.28;;;28.92;69.34
23363;BME280;11853;48.080;11.960;2023-06-22T10:16:52;94784.94;;;28.94;67.59
23363;BME280;11853;48.080;11.960;2023-06-22T10:19:18;94782.25;;;29.05;67.25
23363;BME280;11853;48.080;11.960;2023-06-22T10:21:44;94777.31;;;29.07;65.18
23363;BME280;11853;48.080;11.960;2023-06-22T10:24:09;94770.25;;;29.11;65.84
23363;BME280;11853;48.080;11.960;2023-06-22T10:26:35;94772.41;;;29.09;67.92
23363;BME280;11853;48.080;11.960;2023-06-22T10:29:02;94769.16;;;29.17;66.22
23363;BME280;11853;48.080;11.960;2023-06-22T10:31:28;94767.78;;;29.30;67.05
23363;BME280;11853;48.080;11.960;2023-06-22T10:33:54;94759.88;;;29.44;66.35
23363;BME280;11853;48.080;11.960;2023-06-22T10:36:21;94770.81;;;29.49;65.11
23363;BME280;11853;48.080;11.960;2023-06-22T10:38:47;94757.69;;;29.51;65.55
23363;BME280;11853;48.080;11.960;2023-06-22T10:41:13;94759.34;;;29.62;64.61
23363;BME280;11853;48.080;11.960;2023-06-22T10:43:38;94757.97;;;29.70;63.16
23363;BME280;11853;48.080;11.960;2023-06-22T10:46:04;94753.06;;;29.67;61.45
23363;BME280;11853;48.080;11.960;2023-06-22T10:48:29;94755.53;;;29.73;62.95
23363;BME280;11853;48.080;11.960;2023-06-22T10:50:55;94748.94;;;29.79;62.90
23363;BME280;11853;48.080;11.960;2023-06-22T10:53:21;94745.38;;;29.79;63.00
23363;BME280;11853;48.080;11.960;2023-06-22T10:55:47;94747.84;;;29.85;62.34
23363;BME280;11853;48.080;11.960;2023-06-22T10:58:13;94742.94;;;29.82;61.16
23363;BME280;11853;48.080;11.960;2023-06-22T11:00:38;94742.94;;;29.77;62.11
23363;BME280;11853;48.080;11.960;2023-06-22T11:03:04;94741.50;;;30.00;60.87
23363;BME280;11853;48.080;11.960;2023-06-22T11:05:29;94739.59;;;29.96;62.01
23363;BME280;11853;48.080;11.960;2023-06-22T11:07:55;94741.22;;;30.07;61.13
23363;BME280;11853;48.080;11.960;2023-06-22T11:10:21;94744.50;;;30.04;62.06
23363;BME280;11853;48.080;11.960;2023-06-22T11:12:46;94738.47;;;30.12;59.44
23363;BME280;11853;48.080;11.960;2023-06-22T11:15:29;94733.56;;;30.04;61.77
23363;BME280;11853;48.080;11.960;2023-06-22T11:24:04;94719.00;;;30.19;62.96
23363;BME280;11853;48.080;11.960;2023-06-22T11:26:30;94718.50;;;30.06;64.67
23363;BME280;11853;48.080;11.960;2023-06-22T11:29:12;94714.63;;;30.28;61.45
23363;BME280;11853;48.080;11.960;2023-06-22T11:38:13;94713.69;;;30.53;59.80
23363;BME280;11853;48.080;11.960;2023-06-22T11:40:39;94717.88;;;30.40;60.85
23363;BME280;11853;48.080;11.960;2023-06-22T11:43:04;94715.47;;;30.23;61.15
23363;BME280;11853;48.080;11.960;2023-06-22T11:45:30;94720.13;;;30.23;60.59
23363;BME280;11853;48.080;11.960;2023-06-22T11:47:56;94709.47;;;30.06;62.06
23363;BME280;11853;48.080;11.960;2023-06-22T11:50:21;94708.41;;;29.92;64.78
23363;BME280;11853;48.080;11.960;2023-06-22T11:52:47;94700.75;;;29.94;62.67
23363;BME280;11853;48.080;11.960;2023-06-22T11:55:13;94703.13;;;30.16;60.78
23363;BME280;11853;48.080;11.960;2023-06-22T11:57:53;94703.75;;;30.02;63.60
23363;BME280;11853;48.080;11.960;2023-06-22T12:00:19;94707.59;;;29.96;65.72
23363;BME280;11853;48.080;11.960;2023-06-22T12:02:46;94703.19;;;30.00;65.17
23363;BME280;11853;48.080;11.960;2023-06-22T12:05:11;94697.97;;;30.09;65.50
23363;BME280;11853;48.080;11.960;2023-06-22T12:07:37;94695.47;;;30.28;63.68
23363;BME280;11853;48.080;11.960;2023-06-22T12:10:04;94700.09;;;30.27;64.49
23363;BME280;11853;48.080;11.960;2023-06-22T12:12:29;94694.03;;;30.41;62.88
23363;BME280;11853;48.080;11.960;2023-06-22T12:14:55;94698.91;;;30.54;63.24
23363;BME280;11853;48.080;11.960;2023-06-22T12:17:21;94690.00;;;30.78;59.48
23363;BME280;11853;48.080;11.960;2023-06-22T12:19:46;94678.56;;;30.65;61.14
23363;BME280;11853;48.080;11.960;2023-06-22T12:22:12;94676.34;;;30.67;61.17
23363;BME280;11853;48.080;11.960;2023-06-22T12:24:38;94673.34;;;30.69;60.27
23363;BME280;11853;48.080;11.960;2023-06-22T12:27:04;94663.53;;;30.63;62.55
23363;BME280;11853;48.080;11.960;2023-06-22T12:29:29;94664.53;;;30.77;59.64
23363;BME280;11853;48.080;11.960;2023-06-22T12:31:55;94652.03;;;30.61;62.45
23363;BME280;11853;48.080;11.960;2023-06-22T12:34:21;94649.53;;;30.64;58.71
23363;BME280;11853;48.080;11.960;2023-06-22T12:36:46;94656.94;;;30.59;59.51
23363;BME280;11853;48.080;11.960;2023-06-22T12:39:15;94649.59;;;30.54;63.67
23363;BME280;11853;48.080;11.960;2023-06-22T12:41:40;94653.72;;;30.51;64.22
23363;BME280;11853;48.080;11.960;2023-06-22T12:44:06;94654.53;;;30.52;64.15
23363;BME280;11853;48.080;11.960;2023-06-22T12:46:32;94651.78;;;30.52;64.57
23363;BME280;11853;48.080;11.960;2023-06-22T12:49:03;94651.75;;;30.62;63.64
23363;BME280;11853;48.080;11.960;2023-06-22T12:51:30;94640.50;;;30.59;66.17
23363;BME280;11853;48.080;11.960;2023-06-22T12:53:56;94642.59;;;30.82;62.89
23363;BME280;11853;48.080;11.960;2023-06-22T12:56:22;94640.72;;;30.67;64.06
23363;BME280;11853;48.080;11.960;2023-06-22T12:58:48;94643.56;;;30.57;64.86
23363;BME280;11853;48.080;11.960;2023-06-22T13:01:13;94641.84;;;30.66;65.75
23363;BME280;11853;48.080;11.960;2023-06-22T13:03:40;94635.19;;;30.83;63.21